createdAt,value
2019-05-07T00:00:32.937Z,36.80
2019-05-07T00:01:34.011Z,36.50
2019-05-07T00:02:25.747Z,31.20
2019-05-07T00:02:32.240Z,35.20
2019-05-07T00:03:32.814Z,37.20
2019-05-07T00:04:33.218Z,33.30
2019-05-07T00:04:54.772Z,29.47
2019-05-07T00:05:33.128Z,34.80
2019-05-07T00:06:32.626Z,36.80
2019-05-07T00:07:23.764Z,29.70
2019-05-07T00:07:32.187Z,36.00
2019-05-07T00:08:32.316Z,34.30
2019-05-07T00:09:32.419Z,36.60
2019-05-07T00:09:52.738Z,31.40
2019-05-07T00:10:33.184Z,37.80
2019-05-07T00:11:33.095Z,36.90
2019-05-07T00:12:23.061Z,31.70
2019-05-07T00:12:32.403Z,38.80
2019-05-07T00:13:33.370Z,36.90
2019-05-07T00:14:34.612Z,37.90
2019-05-07T00:15:00.870Z,31.00
2019-05-07T00:15:32.915Z,36.70
2019-05-07T00:16:32.563Z,36.10
2019-05-07T00:17:23.028Z,33.47
2019-05-07T00:17:32.395Z,38.30
2019-05-07T00:18:32.465Z,37.80
2019-05-07T00:19:32.561Z,39.90
2019-05-07T00:19:52.541Z,32.70
2019-05-07T00:20:32.856Z,39.70
2019-05-07T00:21:32.726Z,40.10
2019-05-07T00:22:22.731Z,32.60
2019-05-07T00:22:32.724Z,38.00
2019-05-07T00:23:32.679Z,41.10
2019-05-07T00:24:33.181Z,39.90
2019-05-07T00:24:52.242Z,34.50
2019-05-07T00:25:32.982Z,39.30
2019-05-07T00:26:32.444Z,40.10
2019-05-07T00:27:22.616Z,32.53
2019-05-07T00:27:32.466Z,36.70
2019-05-07T00:28:32.648Z,37.60
2019-05-07T00:29:32.498Z,40.70
2019-05-07T00:29:52.125Z,33.77
2019-05-07T00:30:33.224Z,40.60
2019-05-07T00:31:32.672Z,37.80
2019-05-07T00:32:22.148Z,33.33
2019-05-07T00:32:32.821Z,39.90
2019-05-07T00:33:32.575Z,39.10
2019-05-07T00:34:32.846Z,38.10
2019-05-07T00:34:55.436Z,35.67
2019-05-07T00:35:32.604Z,39.90
2019-05-07T00:36:32.620Z,41.30
2019-05-07T00:37:32.639Z,37.70
2019-05-07T00:37:33.738Z,32.87
2019-05-07T00:38:32.654Z,36.40
2019-05-07T00:39:32.890Z,39.30
2019-05-07T00:40:22.416Z,32.00
2019-05-07T00:40:32.690Z,38.20
2019-05-07T00:41:32.707Z,36.90
2019-05-07T00:42:32.849Z,39.30
2019-05-07T00:43:09.435Z,32.73
2019-05-07T00:43:32.744Z,41.10
2019-05-07T00:44:32.874Z,38.80
2019-05-07T00:45:32.775Z,41.10
2019-05-07T00:45:46.519Z,33.53
2019-05-07T00:46:32.795Z,36.30
2019-05-07T00:47:33.121Z,40.00
2019-05-07T00:48:15.413Z,33.60
2019-05-07T00:48:33.090Z,40.30
2019-05-07T00:49:33.133Z,39.70
2019-05-07T00:50:33.233Z,41.20
2019-05-07T00:50:45.873Z,33.37
2019-05-07T00:51:33.538Z,39.40
2019-05-07T00:52:33.503Z,38.10
2019-05-07T00:53:14.846Z,32.63
2019-05-07T00:53:32.999Z,38.90
2019-05-07T00:54:32.938Z,36.20
2019-05-07T00:55:32.951Z,36.90
2019-05-07T00:55:43.839Z,32.70
2019-05-07T00:56:33.330Z,38.00
2019-05-07T00:57:32.986Z,37.40
2019-05-07T00:58:13.355Z,31.33
2019-05-07T00:58:33.001Z,37.10
2019-05-07T00:59:33.025Z,39.20
2019-05-07T01:00:33.376Z,36.20
2019-05-07T01:00:42.413Z,29.63
2019-05-07T01:01:33.051Z,34.70
2019-05-07T01:02:33.074Z,36.50
2019-05-07T01:03:12.844Z,29.67
2019-05-07T01:03:33.089Z,34.70
2019-05-07T01:04:33.237Z,36.50
2019-05-07T01:05:33.127Z,36.40
2019-05-07T01:05:43.172Z,30.47
2019-05-07T01:06:33.283Z,36.80
2019-05-07T01:07:33.155Z,34.30
2019-05-07T01:08:13.158Z,30.17
2019-05-07T01:08:33.176Z,36.00
2019-05-07T01:09:33.191Z,35.90
2019-05-07T01:10:33.213Z,37.40
2019-05-07T01:10:42.287Z,29.17
2019-05-07T01:11:33.656Z,36.70
2019-05-07T01:12:33.243Z,34.30
2019-05-07T01:13:12.542Z,28.93
2019-05-07T01:13:33.257Z,32.10
2019-05-07T01:14:33.280Z,35.60
2019-05-07T01:15:34.730Z,34.70
2019-05-07T01:15:43.043Z,28.23
2019-05-07T01:16:33.311Z,33.80
2019-05-07T01:17:33.602Z,34.90
2019-05-07T01:18:12.500Z,27.40
2019-05-07T01:18:33.345Z,33.90
2019-05-07T01:19:33.368Z,32.50
2019-05-07T01:20:33.379Z,30.80
2019-05-07T01:20:42.341Z,27.80
2019-05-07T01:21:33.393Z,33.80
2019-05-07T01:22:33.412Z,30.50
2019-05-07T01:23:13.368Z,29.30
2019-05-07T01:23:33.430Z,32.80
2019-05-07T01:24:33.445Z,28.80
2019-05-07T01:25:33.461Z,31.00
2019-05-07T01:25:43.088Z,25.30
2019-05-07T01:26:33.480Z,29.30
2019-05-07T01:27:33.498Z,31.60
2019-05-07T01:28:13.173Z,24.60
2019-05-07T01:28:33.516Z,30.60
2019-05-07T01:29:33.532Z,30.60
2019-05-07T01:30:33.549Z,28.50
2019-05-07T01:30:43.169Z,25.37
2019-05-07T01:31:33.566Z,27.00
2019-05-07T01:32:33.582Z,30.10
2019-05-07T01:33:23.949Z,24.80
2019-05-07T01:33:33.599Z,30.30
2019-05-07T01:34:33.616Z,30.60
2019-05-07T01:35:33.633Z,30.40
2019-05-07T01:36:17.557Z,26.07
2019-05-07T01:36:33.654Z,31.50
2019-05-07T01:37:33.671Z,27.50
2019-05-07T01:38:33.687Z,29.80
2019-05-07T01:38:46.547Z,24.00
2019-05-07T01:39:33.702Z,31.50
2019-05-07T01:40:33.720Z,31.00
2019-05-07T01:41:15.459Z,24.63
2019-05-07T01:41:33.739Z,29.40
2019-05-07T01:42:36.494Z,34.00
2019-05-07T01:43:33.770Z,32.30
2019-05-07T01:43:44.448Z,24.03
2019-05-07T01:44:33.789Z,29.50
2019-05-07T01:45:45.459Z,30.50
2019-05-07T01:46:13.524Z,23.57
2019-05-07T01:46:33.821Z,27.90
2019-05-07T01:47:33.840Z,30.50
2019-05-07T01:48:33.859Z,30.50
2019-05-07T01:48:42.996Z,24.63
2019-05-07T01:49:33.872Z,32.10
2019-05-07T01:50:33.891Z,31.70
2019-05-07T01:51:12.929Z,24.60
2019-05-07T01:51:33.915Z,29.60
2019-05-07T01:52:33.927Z,30.10
2019-05-07T01:53:33.942Z,30.90
2019-05-07T01:53:43.000Z,25.67
2019-05-07T01:54:33.960Z,30.40
2019-05-07T01:55:33.996Z,35.20
2019-05-07T01:56:12.498Z,24.27
2019-05-07T01:56:34.000Z,35.80
2019-05-07T01:57:34.013Z,34.50
2019-05-07T01:58:34.040Z,33.10
2019-05-07T01:58:42.473Z,26.23
2019-05-07T01:59:34.044Z,31.30
2019-05-07T02:00:34.062Z,32.90
2019-05-07T02:01:13.078Z,25.23
2019-05-07T02:01:35.873Z,31.90
2019-05-07T02:02:34.097Z,31.30
2019-05-07T02:03:34.115Z,29.60
2019-05-07T02:03:57.256Z,25.37
2019-05-07T02:04:34.130Z,32.00
2019-05-07T02:05:34.150Z,33.70
2019-05-07T02:06:34.166Z,32.80
2019-05-07T02:07:34.184Z,32.90
2019-05-07T02:08:34.205Z,33.00
2019-05-07T02:09:34.234Z,34.40
2019-05-07T02:09:51.898Z,23.97
2019-05-07T02:10:34.231Z,31.60
2019-05-07T02:11:34.249Z,32.10
2019-05-07T02:12:26.633Z,23.47
2019-05-07T02:12:34.268Z,33.20
2019-05-07T02:13:34.285Z,32.60
2019-05-07T02:14:34.299Z,31.80
2019-05-07T02:14:55.596Z,26.17
2019-05-07T02:15:34.318Z,30.80
2019-05-07T02:16:34.334Z,29.80
2019-05-07T02:17:24.587Z,24.67
2019-05-07T02:17:34.349Z,30.10
2019-05-07T02:18:34.367Z,31.50
2019-05-07T02:19:34.387Z,29.80
2019-05-07T02:19:53.475Z,25.13
2019-05-07T02:20:34.400Z,31.40
2019-05-07T02:21:34.421Z,33.80
2019-05-07T02:22:22.763Z,27.03
2019-05-07T02:22:34.437Z,30.80
2019-05-07T02:23:34.455Z,35.00
2019-05-07T02:24:34.472Z,33.30
2019-05-07T02:24:52.362Z,27.13
2019-05-07T02:25:34.489Z,35.60
2019-05-07T02:26:34.505Z,33.00
2019-05-07T02:27:22.068Z,26.70
2019-05-07T02:27:34.519Z,34.00
2019-05-07T02:28:34.540Z,34.60
2019-05-07T02:29:34.553Z,32.20
2019-05-07T02:29:52.859Z,26.13
2019-05-07T02:30:35.379Z,34.50
2019-05-07T02:31:34.593Z,31.50
2019-05-07T02:32:24.035Z,27.70
2019-05-07T02:32:34.603Z,34.20
2019-05-07T02:33:35.261Z,34.10
2019-05-07T02:34:34.713Z,32.70
2019-05-07T02:34:54.513Z,28.93
2019-05-07T02:35:34.662Z,30.60
2019-05-07T02:36:34.675Z,34.10
2019-05-07T02:37:35.706Z,27.93
2019-05-07T02:37:47.070Z,35.50
2019-05-07T02:38:34.709Z,33.80
2019-05-07T02:39:34.731Z,31.80
2019-05-07T02:40:34.746Z,31.30
2019-05-07T02:40:36.395Z,26.77
2019-05-07T02:41:34.758Z,33.90
2019-05-07T02:42:34.790Z,34.90
2019-05-07T02:43:05.280Z,28.33
2019-05-07T02:43:34.793Z,34.50
2019-05-07T02:44:34.818Z,33.00
2019-05-07T02:45:34.829Z,35.80
2019-05-07T02:45:50.047Z,28.23
2019-05-07T02:46:36.331Z,36.30
2019-05-07T02:47:34.867Z,33.50
2019-05-07T02:48:23.712Z,28.27
2019-05-07T02:48:34.875Z,37.20
2019-05-07T02:49:34.894Z,35.20
2019-05-07T02:50:34.917Z,33.00
2019-05-07T02:51:00.212Z,25.40
2019-05-07T02:51:34.928Z,33.30
2019-05-07T02:52:34.947Z,32.60
2019-05-07T02:53:34.965Z,35.60
2019-05-07T02:53:37.974Z,25.83
2019-05-07T02:54:34.977Z,36.40
2019-05-07T02:55:35.003Z,36.90
2019-05-07T02:56:06.933Z,24.97
2019-05-07T02:56:35.038Z,35.20
2019-05-07T02:57:35.030Z,37.20
2019-05-07T02:58:35.049Z,35.60
2019-05-07T02:58:35.892Z,24.23
2019-05-07T02:59:35.064Z,34.70
2019-05-07T03:00:35.084Z,37.20
2019-05-07T03:01:05.297Z,27.43
2019-05-07T03:01:35.100Z,36.40
2019-05-07T03:02:35.120Z,33.70
2019-05-07T03:03:34.397Z,28.47
2019-05-07T03:03:35.130Z,37.60
2019-05-07T03:04:35.144Z,38.00
2019-05-07T03:05:35.338Z,38.00
2019-05-07T03:06:03.409Z,27.73
2019-05-07T03:06:35.185Z,40.30
2019-05-07T03:07:35.194Z,34.60
2019-05-07T03:08:33.086Z,26.23
2019-05-07T03:08:35.214Z,35.20
2019-05-07T03:09:35.228Z,35.20
2019-05-07T03:10:35.257Z,34.40
2019-05-07T03:11:03.298Z,24.37
2019-05-07T03:11:35.262Z,36.60
2019-05-07T03:12:35.284Z,33.80
2019-05-07T03:13:33.615Z,28.57
2019-05-07T03:13:35.298Z,36.60
2019-05-07T03:14:35.315Z,35.10
2019-05-07T03:15:35.333Z,41.20
2019-05-07T03:16:03.742Z,24.97
2019-05-07T03:16:43.780Z,36.00
2019-05-07T03:17:35.367Z,35.00
2019-05-07T03:18:33.680Z,26.50
2019-05-07T03:18:35.380Z,33.20
2019-05-07T03:19:35.403Z,36.00
2019-05-07T03:20:35.414Z,37.90
2019-05-07T03:21:12.667Z,26.37
2019-05-07T03:21:35.437Z,36.50
2019-05-07T03:22:35.450Z,38.60
2019-05-07T03:23:35.461Z,39.90
2019-05-07T03:23:54.315Z,27.13
2019-05-07T03:24:35.478Z,40.70
2019-05-07T03:25:35.495Z,33.80
2019-05-07T03:26:28.629Z,26.00
2019-05-07T03:26:35.513Z,38.10
2019-05-07T03:27:35.526Z,36.50
2019-05-07T03:28:35.547Z,39.60
2019-05-07T03:28:59.742Z,36.17
2019-05-07T03:29:35.560Z,34.50
2019-05-07T03:30:36.376Z,38.10
2019-05-07T03:31:36.720Z,36.60
2019-05-07T03:31:47.940Z,26.97
2019-05-07T03:32:39.615Z,37.80
2019-05-07T03:33:36.941Z,34.60
2019-05-07T03:34:27.694Z,27.63
2019-05-07T03:34:37.295Z,35.50
2019-05-07T03:35:37.658Z,33.20
2019-05-07T03:36:35.679Z,30.70
2019-05-07T03:36:57.548Z,27.93
2019-05-07T03:37:36.552Z,34.50
2019-05-07T03:38:35.706Z,36.40
2019-05-07T03:39:26.849Z,27.97
2019-05-07T03:39:35.724Z,41.20
2019-05-07T03:40:35.740Z,35.60
2019-05-07T03:41:35.752Z,34.50
2019-05-07T03:41:55.832Z,30.47
2019-05-07T03:42:35.772Z,35.40
2019-05-07T03:43:35.785Z,38.20
2019-05-07T03:44:35.805Z,34.30
2019-05-07T03:44:44.482Z,27.00
2019-05-07T03:45:35.822Z,35.50
2019-05-07T03:46:52.792Z,39.00
2019-05-07T03:47:19.412Z,26.90
2019-05-07T03:47:35.857Z,32.00
2019-05-07T03:48:35.889Z,34.40
2019-05-07T03:49:35.885Z,34.90
2019-05-07T03:49:48.508Z,27.30
2019-05-07T03:50:35.900Z,36.10
2019-05-07T03:51:35.918Z,32.70
2019-05-07T03:52:17.497Z,26.90
2019-05-07T03:52:35.931Z,33.60
2019-05-07T03:53:35.955Z,38.00
2019-05-07T03:54:35.968Z,39.80
2019-05-07T03:54:46.392Z,28.20
2019-05-07T03:55:35.982Z,37.90
2019-05-07T03:56:36.000Z,35.90
2019-05-07T03:57:15.965Z,24.10
2019-05-07T03:57:36.013Z,37.70
2019-05-07T03:58:36.034Z,35.70
2019-05-07T03:59:36.052Z,33.70
2019-05-07T03:59:45.298Z,24.77
2019-05-07T04:00:36.065Z,33.40
2019-05-07T04:01:36.078Z,34.80
2019-05-07T04:02:14.506Z,28.07
2019-05-07T04:02:36.094Z,38.40
2019-05-07T04:03:36.117Z,34.90
2019-05-07T04:04:36.126Z,38.10
2019-05-07T04:04:43.608Z,27.57
2019-05-07T04:05:36.141Z,32.30
2019-05-07T04:06:36.168Z,35.20
2019-05-07T04:07:13.822Z,24.00
2019-05-07T04:07:36.174Z,30.40
2019-05-07T04:08:36.192Z,34.30
2019-05-07T04:09:36.209Z,33.20
2019-05-07T04:09:43.791Z,24.73
2019-05-07T04:10:36.226Z,31.90
2019-05-07T04:11:36.247Z,32.90
2019-05-07T04:12:13.401Z,25.73
2019-05-07T04:12:36.254Z,31.80
2019-05-07T04:13:36.302Z,31.60
2019-05-07T04:14:36.289Z,33.30
2019-05-07T04:14:43.284Z,24.40
2019-05-07T04:15:36.302Z,30.10
2019-05-07T04:16:36.322Z,33.30
2019-05-07T04:17:17.336Z,23.47
2019-05-07T04:17:36.334Z,35.40
2019-05-07T04:18:36.348Z,32.40
2019-05-07T04:19:36.379Z,36.40
2019-05-07T04:19:44.090Z,23.23
2019-05-07T04:20:36.386Z,29.20
2019-05-07T04:21:36.416Z,31.40
2019-05-07T04:22:13.681Z,26.37
2019-05-07T04:22:36.412Z,36.90
2019-05-07T04:23:36.449Z,33.40
2019-05-07T04:24:36.450Z,35.50
2019-05-07T04:25:14.020Z,23.90
2019-05-07T04:25:36.471Z,30.30
2019-05-07T04:26:36.486Z,33.30
2019-05-07T04:27:36.535Z,30.40
2019-05-07T04:27:52.579Z,23.93
2019-05-07T04:28:36.516Z,30.10
2019-05-07T04:29:36.530Z,29.80
2019-05-07T04:30:23.321Z,23.50
2019-05-07T04:30:36.547Z,39.00
2019-05-07T04:31:36.565Z,31.60
2019-05-07T04:32:36.572Z,28.50
2019-05-07T04:32:53.178Z,24.50
2019-05-07T04:33:36.596Z,33.30
2019-05-07T04:34:36.617Z,31.20
2019-05-07T04:35:33.500Z,25.63
2019-05-07T04:35:36.627Z,32.50
2019-05-07T04:36:36.639Z,34.50
2019-05-07T04:37:36.809Z,38.30
2019-05-07T04:38:06.729Z,25.57
2019-05-07T04:38:36.670Z,33.00
2019-05-07T04:39:36.688Z,31.90
2019-05-07T04:40:33.950Z,27.17
2019-05-07T04:40:36.705Z,34.10
2019-05-07T04:41:36.720Z,32.10
2019-05-07T04:42:36.735Z,31.20
2019-05-07T04:43:03.072Z,26.33
2019-05-07T04:43:36.777Z,31.60
2019-05-07T04:44:36.770Z,28.50
2019-05-07T04:45:33.805Z,24.57
2019-05-07T04:45:36.788Z,28.90
2019-05-07T04:46:36.819Z,33.10
2019-05-07T04:47:42.886Z,29.30
2019-05-07T04:48:03.192Z,25.30
2019-05-07T04:48:36.832Z,30.90
2019-05-07T04:49:36.851Z,34.90
2019-05-07T04:50:42.564Z,28.83
2019-05-07T04:50:42.988Z,31.60
2019-05-07T04:51:36.890Z,32.40
2019-05-07T04:52:36.935Z,34.00
2019-05-07T04:53:04.479Z,26.90
2019-05-07T04:53:36.914Z,34.60
2019-05-07T04:54:36.932Z,32.60
2019-05-07T04:55:33.667Z,27.00
2019-05-07T04:55:36.950Z,27.90
2019-05-07T04:56:36.968Z,27.50
2019-05-07T04:57:36.987Z,28.30
2019-05-07T04:58:08.051Z,24.37
2019-05-07T04:58:37.002Z,28.40
2019-05-07T04:59:37.023Z,28.80
2019-05-07T05:00:33.802Z,22.80
2019-05-07T05:00:37.048Z,25.40
2019-05-07T05:01:37.058Z,26.20
2019-05-07T05:02:37.083Z,28.20
2019-05-07T05:03:33.981Z,22.87
2019-05-07T05:03:39.298Z,25.40
2019-05-07T05:04:37.118Z,25.20
2019-05-07T05:05:37.132Z,26.40
2019-05-07T05:06:02.643Z,23.10
2019-05-07T05:06:37.150Z,25.00
2019-05-07T05:07:37.170Z,27.50
2019-05-07T05:08:32.555Z,21.57
2019-05-07T05:08:37.191Z,28.20
2019-05-07T05:09:37.218Z,25.80
2019-05-07T05:10:37.236Z,25.90
2019-05-07T05:11:03.317Z,21.57
2019-05-07T05:11:37.253Z,25.40
2019-05-07T05:12:37.269Z,24.60
2019-05-07T05:13:33.306Z,21.47
2019-05-07T05:13:37.295Z,28.40
2019-05-07T05:14:37.313Z,25.30
2019-05-07T05:15:37.332Z,27.60
2019-05-07T05:16:22.458Z,20.10
2019-05-07T05:16:37.357Z,22.40
2019-05-07T05:17:49.698Z,24.40
2019-05-07T05:18:37.398Z,29.80
2019-05-07T05:18:51.837Z,20.47
2019-05-07T05:19:37.418Z,28.20
2019-05-07T05:20:37.438Z,26.50
2019-05-07T05:21:37.468Z,28.50
2019-05-07T05:21:38.954Z,19.97
2019-05-07T05:22:37.482Z,28.40
2019-05-07T05:23:37.504Z,24.70
2019-05-07T05:24:12.654Z,20.30
2019-05-07T05:24:37.525Z,25.10
2019-05-07T05:25:37.548Z,23.90
2019-05-07T05:26:37.572Z,22.90
2019-05-07T05:26:42.000Z,21.47
2019-05-07T05:27:37.593Z,24.00
2019-05-07T05:28:37.613Z,23.00
2019-05-07T05:29:12.165Z,20.40
2019-05-07T05:29:37.636Z,26.50
2019-05-07T05:30:37.661Z,23.30
2019-05-07T05:31:37.682Z,23.20
2019-05-07T05:31:42.156Z,17.63
2019-05-07T05:32:37.708Z,27.00
2019-05-07T05:33:37.732Z,22.40
2019-05-07T05:34:13.061Z,19.63
2019-05-07T05:34:37.752Z,24.40
2019-05-07T05:35:37.777Z,24.10
2019-05-07T05:36:37.797Z,23.70
2019-05-07T05:36:42.564Z,19.97
2019-05-07T05:37:37.823Z,21.20
2019-05-07T05:38:37.847Z,24.80
2019-05-07T05:39:13.207Z,18.97
2019-05-07T05:39:37.871Z,22.40
2019-05-07T05:40:37.940Z,23.60
2019-05-07T05:41:38.131Z,21.80
2019-05-07T05:41:43.756Z,19.07
2019-05-07T05:42:38.033Z,24.00
2019-05-07T05:43:38.043Z,23.30
2019-05-07T05:44:32.143Z,19.10
2019-05-07T05:44:38.037Z,22.80
2019-05-07T05:45:38.163Z,21.60
2019-05-07T05:46:38.056Z,22.80
2019-05-07T05:47:02.394Z,19.20
2019-05-07T05:47:38.072Z,25.60
2019-05-07T05:48:38.094Z,25.50
2019-05-07T05:49:32.174Z,19.17
2019-05-07T05:49:38.106Z,22.40
2019-05-07T05:50:38.151Z,28.20
2019-05-07T05:51:38.162Z,24.40
2019-05-07T05:52:22.070Z,19.13
2019-05-07T05:52:38.183Z,22.10
2019-05-07T05:53:38.201Z,26.10
2019-05-07T05:54:38.240Z,25.50
2019-05-07T05:55:02.544Z,17.67
2019-05-07T05:55:38.249Z,23.40
2019-05-07T05:56:38.271Z,22.50
2019-05-07T05:57:38.302Z,22.80
2019-05-07T05:58:05.818Z,17.20
2019-05-07T05:58:38.326Z,22.50
2019-05-07T05:59:49.003Z,22.40
2019-05-07T06:00:38.372Z,23.40
2019-05-07T06:00:53.068Z,17.17
2019-05-07T06:01:38.394Z,24.20
2019-05-07T06:02:38.416Z,23.80
2019-05-07T06:03:38.447Z,23.50
2019-05-07T06:03:51.986Z,17.17
2019-05-07T06:04:38.470Z,18.50
2019-05-07T06:05:38.492Z,19.60
2019-05-07T06:06:27.282Z,16.90
2019-05-07T06:06:38.519Z,19.90
2019-05-07T06:07:38.540Z,26.00
2019-05-07T06:08:38.562Z,23.30
2019-05-07T06:09:01.927Z,14.83
2019-05-07T06:09:38.587Z,21.80
2019-05-07T06:10:38.613Z,21.10
2019-05-07T06:11:38.635Z,22.40
2019-05-07T06:11:56.164Z,17.13
2019-05-07T06:12:38.660Z,19.70
2019-05-07T06:13:38.685Z,18.80
2019-05-07T06:14:38.712Z,19.20
2019-05-07T06:14:47.176Z,16.67
2019-05-07T06:15:38.731Z,24.60
2019-05-07T06:16:38.762Z,20.00
2019-05-07T06:17:38.778Z,21.00
2019-05-07T06:17:47.498Z,15.23
2019-05-07T06:18:38.805Z,21.40
2019-05-07T06:19:38.825Z,24.50
2019-05-07T06:20:32.871Z,17.17
2019-05-07T06:20:38.848Z,22.40
2019-05-07T06:21:38.876Z,17.30
2019-05-07T06:22:38.897Z,21.20
2019-05-07T06:23:38.913Z,20.40
2019-05-07T06:23:39.367Z,11.97
2019-05-07T06:24:38.937Z,21.00
2019-05-07T06:25:38.958Z,20.40
2019-05-07T06:26:08.448Z,14.23
2019-05-07T06:26:38.982Z,20.10
2019-05-07T06:27:39.006Z,19.80
2019-05-07T06:28:37.427Z,13.57
2019-05-07T06:28:39.025Z,22.20
2019-05-07T06:29:39.048Z,18.30
2019-05-07T06:30:39.068Z,17.50
2019-05-07T06:31:06.424Z,16.23
2019-05-07T06:31:39.093Z,18.50
2019-05-07T06:32:39.108Z,19.70
2019-05-07T06:33:35.311Z,13.43
2019-05-07T06:33:39.131Z,18.50
2019-05-07T06:34:41.663Z,19.20
2019-05-07T06:35:39.178Z,23.60
2019-05-07T06:36:04.435Z,14.03
2019-05-07T06:36:39.194Z,16.50
2019-05-07T06:37:39.217Z,19.80
2019-05-07T06:38:38.932Z,11.97
2019-05-07T06:38:39.238Z,21.60
2019-05-07T06:39:39.261Z,19.70
2019-05-07T06:40:39.287Z,17.10
2019-05-07T06:41:36.183Z,11.90
2019-05-07T06:41:39.308Z,22.20
2019-05-07T06:42:39.324Z,16.70
2019-05-07T06:43:39.345Z,20.70
2019-05-07T06:44:09.475Z,10.93
2019-05-07T06:44:39.368Z,18.70
2019-05-07T06:45:39.433Z,16.20
2019-05-07T06:46:38.916Z,13.33
2019-05-07T06:46:41.837Z,15.90
2019-05-07T06:47:39.441Z,20.40
2019-05-07T06:48:43.572Z,20.70
2019-05-07T06:49:07.891Z,14.50
2019-05-07T06:49:39.478Z,14.70
2019-05-07T06:50:39.535Z,17.60
2019-05-07T06:51:36.763Z,10.13
2019-05-07T06:51:41.861Z,18.40
2019-05-07T06:52:39.549Z,15.20
2019-05-07T06:53:39.569Z,19.10
2019-05-07T06:54:05.648Z,7.20
2019-05-07T06:54:39.595Z,19.10
2019-05-07T06:55:39.615Z,14.40
2019-05-07T06:56:34.638Z,9.37
2019-05-07T06:56:42.007Z,19.70
2019-05-07T06:57:39.661Z,16.20
2019-05-07T06:58:41.750Z,12.10
2019-05-07T06:59:12.835Z,10.67
2019-05-07T06:59:39.710Z,16.80
2019-05-07T07:00:42.020Z,17.50
2019-05-07T07:01:42.179Z,17.20
2019-05-07T07:02:05.342Z,12.20
2019-05-07T07:02:41.824Z,16.20
2019-05-07T07:03:41.879Z,16.50
2019-05-07T07:04:39.826Z,19.30
2019-05-07T07:04:47.083Z,7.20
2019-05-07T07:05:42.347Z,17.20
2019-05-07T07:06:39.874Z,16.60
2019-05-07T07:07:30.178Z,9.60
2019-05-07T07:07:41.971Z,16.10
2019-05-07T07:08:41.890Z,17.40
2019-05-07T07:09:42.299Z,17.00
2019-05-07T07:10:12.612Z,9.40
2019-05-07T07:10:39.966Z,13.10
2019-05-07T07:11:42.296Z,14.50
2019-05-07T07:12:41.880Z,12.70
2019-05-07T07:12:42.456Z,9.53
2019-05-07T07:13:40.046Z,17.60
2019-05-07T07:14:42.225Z,17.00
2019-05-07T07:15:12.216Z,7.53
2019-05-07T07:15:40.080Z,14.10
2019-05-07T07:16:42.069Z,16.00
2019-05-07T07:17:41.889Z,16.00
2019-05-07T07:17:41.923Z,9.23
2019-05-07T07:18:51.096Z,18.80
2019-05-07T07:19:40.178Z,15.10
2019-05-07T07:20:12.748Z,10.20
2019-05-07T07:20:40.195Z,17.80
2019-05-07T07:21:42.148Z,14.40
2019-05-07T07:22:42.446Z,16.80
2019-05-07T07:22:42.562Z,12.53
2019-05-07T07:23:40.258Z,17.80
2019-05-07T07:24:42.287Z,13.80
2019-05-07T07:25:22.949Z,8.90
2019-05-07T07:25:40.304Z,18.20
2019-05-07T07:26:42.190Z,16.10
2019-05-07T07:27:42.713Z,14.70
2019-05-07T07:27:52.160Z,9.80
2019-05-07T07:28:40.371Z,14.90
2019-05-07T07:29:41.937Z,15.80
2019-05-07T07:30:42.056Z,14.60
2019-05-07T07:30:55.342Z,12.03
2019-05-07T07:31:42.470Z,17.00
2019-05-07T07:32:42.423Z,16.40
2019-05-07T07:33:26.596Z,8.33
2019-05-07T07:33:40.474Z,15.00
2019-05-07T07:34:42.599Z,17.80
2019-05-07T07:35:42.740Z,15.50
2019-05-07T07:35:55.578Z,10.37
2019-05-07T07:36:42.357Z,16.90
2019-05-07T07:37:42.838Z,19.50
2019-05-07T07:38:34.009Z,7.77
2019-05-07T07:38:42.072Z,16.10
2019-05-07T07:39:42.867Z,14.50
2019-05-07T07:40:42.221Z,20.70
2019-05-07T07:41:18.492Z,10.80
2019-05-07T07:41:42.097Z,15.10
2019-05-07T07:42:42.628Z,14.90
2019-05-07T07:43:41.959Z,16.80
2019-05-07T07:43:47.448Z,10.77
2019-05-07T07:44:42.582Z,20.70
2019-05-07T07:45:42.000Z,19.00
2019-05-07T07:46:16.744Z,11.13
2019-05-07T07:46:42.443Z,16.90
2019-05-07T07:47:42.239Z,15.00
2019-05-07T07:48:43.341Z,33.90
2019-05-07T07:48:45.929Z,10.17
2019-05-07T07:49:42.063Z,16.50
2019-05-07T07:50:42.111Z,24.40
2019-05-07T07:51:15.008Z,9.73
2019-05-07T07:51:44.441Z,17.40
2019-05-07T07:52:42.048Z,31.10
2019-05-07T07:53:42.506Z,31.00
2019-05-07T07:53:44.016Z,16.07
2019-05-07T07:54:42.876Z,24.10
2019-05-07T07:55:42.591Z,15.80
2019-05-07T07:56:45.396Z,10.50
2019-05-07T07:56:50.245Z,16.60
2019-05-07T07:57:42.725Z,15.10
2019-05-07T07:58:41.950Z,16.00
2019-05-07T07:59:14.727Z,9.10
2019-05-07T07:59:42.156Z,18.80
2019-05-07T08:00:42.853Z,16.30
2019-05-07T08:01:42.097Z,16.60
2019-05-07T08:01:57.996Z,12.20
2019-05-07T08:02:42.431Z,13.50
2019-05-07T08:03:41.804Z,15.00
2019-05-07T08:04:26.999Z,10.10
2019-05-07T08:04:42.594Z,16.20
2019-05-07T08:05:42.724Z,16.00
2019-05-07T08:06:42.077Z,16.40
2019-05-07T08:07:05.103Z,8.97
2019-05-07T08:07:42.615Z,17.30
2019-05-07T08:08:42.441Z,16.90
2019-05-07T08:09:35.000Z,9.60
2019-05-07T08:09:42.785Z,19.60
2019-05-07T08:10:42.540Z,18.20
2019-05-07T08:11:42.558Z,13.80
2019-05-07T08:12:04.377Z,10.00
2019-05-07T08:12:42.198Z,15.50
2019-05-07T08:13:42.485Z,13.30
2019-05-07T08:14:33.615Z,9.00
2019-05-07T08:14:42.668Z,22.40
2019-05-07T08:15:42.968Z,15.00
2019-05-07T08:16:42.941Z,14.40
2019-05-07T08:17:04.246Z,9.63
2019-05-07T08:17:41.885Z,15.60
2019-05-07T08:18:43.611Z,15.00
2019-05-07T08:19:33.157Z,10.20
2019-05-07T08:19:42.931Z,15.60
2019-05-07T08:20:43.003Z,16.50
2019-05-07T08:21:42.044Z,17.60
2019-05-07T08:22:02.874Z,8.83
2019-05-07T08:22:42.281Z,14.00
2019-05-07T08:23:42.379Z,14.90
2019-05-07T08:24:32.347Z,6.33
2019-05-07T08:24:42.660Z,17.30
2019-05-07T08:25:42.603Z,11.30
2019-05-07T08:26:42.850Z,12.20
2019-05-07T08:27:02.326Z,6.83
2019-05-07T08:27:42.058Z,16.40
2019-05-07T08:28:41.976Z,15.60
2019-05-07T08:29:32.487Z,11.87
2019-05-07T08:29:43.013Z,13.30
2019-05-07T08:30:42.088Z,16.60
2019-05-07T08:31:42.475Z,10.30
2019-05-07T08:32:19.475Z,7.03
2019-05-07T08:32:42.591Z,12.00
2019-05-07T08:33:42.598Z,12.30
2019-05-07T08:34:42.813Z,11.40
2019-05-07T08:35:14.317Z,6.33
2019-05-07T08:35:41.995Z,14.50
2019-05-07T08:36:42.122Z,13.00
2019-05-07T08:37:42.730Z,12.60
2019-05-07T08:37:43.472Z,6.20
2019-05-07T08:38:42.619Z,11.30
2019-05-07T08:39:42.890Z,15.10
2019-05-07T08:40:12.943Z,8.00
2019-05-07T08:40:41.948Z,12.50
2019-05-07T08:41:42.280Z,11.30
2019-05-07T08:42:41.973Z,12.10
2019-05-07T08:42:42.073Z,5.00
2019-05-07T08:43:42.774Z,13.00
2019-05-07T08:44:42.954Z,12.50
2019-05-07T08:45:32.510Z,8.97
2019-05-07T08:45:43.212Z,12.50
2019-05-07T08:46:42.226Z,14.10
2019-05-07T08:47:42.558Z,15.30
2019-05-07T08:48:03.116Z,7.00
2019-05-07T08:48:42.495Z,12.10
2019-05-07T08:49:43.357Z,9.20
2019-05-07T08:50:32.690Z,6.13
2019-05-07T08:50:42.057Z,12.50
2019-05-07T08:51:42.614Z,10.20
2019-05-07T08:52:42.126Z,11.40
2019-05-07T08:53:02.827Z,7.43
2019-05-07T08:53:42.325Z,12.60
2019-05-07T08:54:42.837Z,13.00
2019-05-07T08:55:32.316Z,6.20
2019-05-07T08:55:42.480Z,13.10
2019-05-07T08:56:42.614Z,9.20
2019-05-07T08:57:42.201Z,11.20
2019-05-07T08:58:02.199Z,7.70
2019-05-07T08:58:42.223Z,14.20
2019-05-07T08:59:46.734Z,11.90
2019-05-07T09:00:32.604Z,4.60
2019-05-07T09:00:42.261Z,10.90
2019-05-07T09:01:43.267Z,11.20
2019-05-07T09:02:42.306Z,14.30
2019-05-07T09:03:01.744Z,9.47
2019-05-07T09:03:42.917Z,12.30
2019-05-07T09:04:42.347Z,12.40
2019-05-07T09:05:32.337Z,5.80
2019-05-07T09:05:42.645Z,12.40
2019-05-07T09:06:43.045Z,12.10
2019-05-07T09:07:42.625Z,13.00
2019-05-07T09:08:02.217Z,6.90
2019-05-07T09:08:43.628Z,10.70
2019-05-07T09:09:42.800Z,11.90
2019-05-07T09:10:32.550Z,8.20
2019-05-07T09:10:42.470Z,11.10
2019-05-07T09:11:42.724Z,11.70
2019-05-07T09:12:42.919Z,11.50
2019-05-07T09:13:02.818Z,9.13
2019-05-07T09:13:42.530Z,19.30
2019-05-07T09:14:42.797Z,12.60
2019-05-07T09:15:32.143Z,11.47
2019-05-07T09:15:42.614Z,14.20
2019-05-07T09:16:42.918Z,15.90
2019-05-07T09:17:42.609Z,12.30
2019-05-07T09:18:02.052Z,8.40
2019-05-07T09:18:42.657Z,13.90